Terminal Aerodrome Forecast
Issued by NWS

Home | Current Version | Previous Version | Text Only | Print | Product List | Glossary On
Versions: 1 2 3 4 5 6 7 8 9 10 11 12 13 14 15 16 17 18 19 20 21 22 23 24 25 26 27 28 29 30 31 32 33 34 35 36 37 38 39 40 41 42 43 44 45 46 47 48 49 50
000
FTUS45 KGJT 271245 AAA
TAFASE
TAF AMD
KASE 271245Z 2713/2812 00000KT 2SM -SN BR VCSH OVC022
     FM271600 34004KT P6SM VCSH FEW030 OVC050
     FM272200 00000KT 5SM -SN BR BKN020 OVC040
     FM280100 18004KT 2SM -SN BR OVC015
     FM280500 18004KT 4SM BR OVC030=

USA.gov is the U.S. government's official web portal to all federal, state and local government web resources and services.